Lubbock Preston Smith International Airport
KLBB : now visible

Airfield :











YOU CAN JOIN US ON...

 
LOGIN :

Register | Disclaimer

   EN    FR    IT 

 









Legend :    VFR   Marginal VFR   IFR   Intensive IFR   Very Intensive IFR
Visi :
Ceiling :
>= 8 km
>= 3000ft
5 to 8 km
1000 to 3000 ft
1500m to 5 km
500 to 1000 ft
800 to 1500m
200 to 500 ft
< 800m
< 200 ft
Symbols :   Thunderstorms  Fog  Heavy snow  Heavy precipitations  Wind > 20 kt






- Airport Elevation : 3282 ft
- IATA code : LBB


KLBB - Lubbock Preston Smith International

CURRENT METAR :
  • 160953Z 02006KT 4SM -DZ BR BKN004 OVC010 09/08 A2987 RMK AO2 RAE06DZB06 SLP100 P0001 T00890083

EXPIRED METARs :
  • 160853Z 02007KT 3SM -RA BR BKN004 OVC010 09/09 A2987 RMK AO2 DZE42RAB42 SLP097 P0001 60002 T00940089 55002
  • 160843Z 01006KT 2 1/2SM -RA BR BKN002 OVC010 09/09 A2987 RMK AO2 DZE42RAB42 P0001 T00940089
  • 160757Z 15009KT 1 3/4SM R17R/6000VP6000FT -DZ BR OVC002 09/09 A2983 RMK AO2 P0000 T00940089

TAF KLBB
Valid from the 16 at 06:00 until the 17 at 06:00 UTC


160541Z 1606/1706 11011KT 2SM -DZ BR OVC003
FM161500 35015KT 5SM BR BKN005 OVC015
FM161700 35020KT P6SM SCT008 OVC150
FM161900 35020G30KT P6SM OVC150
FM170300 02020KT P6SM OVC150
KZFW FIR / North America



MET'MAP, your aeronautical weather chart ! - Copyright ORBIFLY December 2007 - Disclaimer

ORBIFLY MET'MAP TEAM :

Programming & Development : Alexandra Zaïnal
Concept & original design : Baudouin d'Aumeries
Assistance for programming : Marc-Olivier Méhu
Technical & hardware support : Manuel Goepfert

Contact : metmap@orbifly.com




SOURCES & CREDITS :

   NOAA       Earth
Advisory